createdAt,value
2019-03-08T00:02:44.650Z,1.2
2019-03-08T00:07:50.577Z,1.5
2019-03-08T00:12:56.321Z,3.1
2019-03-08T00:18:02.147Z,2.2
2019-03-08T00:23:07.784Z,1.4
2019-03-08T00:28:14.338Z,1
2019-03-08T00:33:19.453Z,2
2019-03-08T00:38:24.538Z,1.4
2019-03-08T00:43:30.531Z,1.7
2019-03-08T00:48:35.745Z,1.3
2019-03-08T00:53:42.048Z,1.5
2019-03-08T00:58:48.017Z,2.5
2019-03-08T01:03:54.532Z,1.7
2019-03-08T01:08:59.668Z,4.4
2019-03-08T01:14:04.775Z,4
2019-03-08T01:19:09.853Z,2.3
2019-03-08T01:24:15.245Z,3
2019-03-08T01:29:20.818Z,2.8
2019-03-08T01:34:26.870Z,4.7
2019-03-08T01:39:32.150Z,2
2019-03-08T01:44:37.215Z,1.9
2019-03-08T01:49:42.466Z,2.1
2019-03-08T01:54:48.085Z,1.6
2019-03-08T01:59:55.100Z,3.6
2019-03-08T02:05:00.864Z,3.7
2019-03-08T02:10:06.144Z,2
2019-03-08T02:15:11.324Z,1.2
2019-03-08T02:20:16.513Z,3
2019-03-08T02:25:22.112Z,2.9
2019-03-08T02:30:27.978Z,1.6
2019-03-08T02:35:33.675Z,1.5
2019-03-08T02:40:42.308Z,1.8
2019-03-08T02:45:48.152Z,1
2019-03-08T02:50:54.340Z,2.5
2019-03-08T02:55:59.918Z,1.4
2019-03-08T03:01:06.011Z,1.7
2019-03-08T03:06:12.297Z,1.1
2019-03-08T03:11:16.711Z,1.4
2019-03-08T03:16:22.997Z,1.9
2019-03-08T03:21:28.829Z,1.1
2019-03-08T03:26:34.429Z,1.2
2019-03-08T03:31:39.990Z,2.5
2019-03-08T03:36:44.203Z,2.7
2019-03-08T03:41:49.716Z,1.3
2019-03-08T03:46:55.360Z,1.3
2019-03-08T03:52:01.632Z,2.3
2019-03-08T03:57:07.327Z,1.8
2019-03-08T04:02:13.105Z,2.3
2019-03-08T04:07:18.583Z,1.1
2019-03-08T04:12:24.800Z,1.7
2019-03-08T04:17:30.538Z,0.8
2019-03-08T04:22:36.964Z,1.2
2019-03-08T04:28:24.494Z,1.2
2019-03-08T04:33:30.119Z,1
2019-03-08T04:38:35.129Z,1.5
2019-03-08T04:43:40.331Z,1.5
2019-03-08T04:48:45.330Z,2.7
2019-03-08T04:49:56.130Z,4.8
2019-03-08T04:55:01.672Z,3.5
2019-03-08T05:00:08.773Z,1.9
2019-03-08T05:05:16.337Z,2.1
2019-03-08T05:10:21.392Z,6.6
2019-03-08T05:15:27.061Z,10.7
2019-03-08T05:20:32.929Z,5.8
2019-03-08T05:25:38.199Z,9.5
2019-03-08T05:30:43.207Z,5.7
2019-03-08T05:35:48.836Z,8.3
2019-03-08T05:40:54.054Z,5.3
2019-03-08T05:46:00.802Z,5.5
2019-03-08T05:51:05.993Z,7.6
2019-03-08T05:56:11.553Z,14
2019-03-08T06:01:16.615Z,8.8
2019-03-08T06:06:21.860Z,9.9
2019-03-08T06:11:29.568Z,11.4
2019-03-08T06:16:35.182Z,12.5
2019-03-08T06:21:42.022Z,6.9
2019-03-08T06:26:47.275Z,11.7
2019-03-08T06:31:52.325Z,10.2
2019-03-08T06:36:57.554Z,8.3
2019-03-08T06:42:03.805Z,11.2
2019-03-08T06:47:09.592Z,7.6
2019-03-08T06:52:14.745Z,5.8
2019-03-08T06:57:20.950Z,8.9
2019-03-08T07:02:26.086Z,5.6
2019-03-08T07:07:34.744Z,7.5
2019-03-08T07:12:39.169Z,6.9
2019-03-08T07:17:45.032Z,7
2019-03-08T07:22:51.011Z,5.8
2019-03-08T07:27:55.705Z,7.1
2019-03-08T07:33:01.332Z,7.3
2019-03-08T07:38:07.461Z,13.2
2019-03-08T07:43:13.156Z,11.6
2019-03-08T07:48:17.743Z,13.9
2019-03-08T07:53:23.432Z,8.9
2019-03-08T07:58:29.433Z,8.8
2019-03-08T08:03:37.261Z,13.7
2019-03-08T08:08:51.317Z,9.7
2019-03-08T08:13:47.478Z,9.8
2019-03-08T08:18:50.920Z,14.1
2019-03-08T08:23:55.974Z,8.7
2019-03-08T08:29:01.799Z,9.6
2019-03-08T08:34:07.534Z,10.1
2019-03-08T08:39:13.609Z,9
2019-03-08T08:44:19.161Z,13.7
2019-03-08T08:49:25.150Z,12.2
2019-03-08T08:54:30.394Z,8.9
2019-03-08T08:59:36.064Z,15.2
2019-03-08T09:04:41.944Z,10.2
2019-03-08T09:09:48.684Z,9.3
2019-03-08T09:14:54.451Z,9.6
2019-03-08T09:19:59.965Z,18
2019-03-08T09:25:05.155Z,11.2
2019-03-08T09:30:09.961Z,14.9
2019-03-08T09:35:16.244Z,9.5
2019-03-08T09:40:22.129Z,9.3
2019-03-08T09:45:28.019Z,13.2
2019-03-08T09:50:34.107Z,6
2019-03-08T09:55:40.284Z,7.3
2019-03-08T10:00:45.489Z,10.4
2019-03-08T10:05:53.036Z,6.1
2019-03-08T10:10:58.633Z,8.2
2019-03-08T10:16:04.422Z,7.3
2019-03-08T10:21:10.188Z,7.9
2019-03-08T10:26:16.360Z,7.3
2019-03-08T10:31:20.959Z,5.5
2019-03-08T10:36:26.405Z,7
2019-03-08T10:41:32.376Z,9.7
2019-03-08T10:46:38.230Z,12.7
2019-03-08T10:51:43.039Z,8.5
2019-03-08T10:56:48.169Z,7.3
2019-03-08T11:01:54.166Z,6.5
2019-03-08T11:07:00.130Z,9.6
2019-03-08T11:12:08.125Z,8.1
2019-03-08T11:17:13.249Z,6
2019-03-08T11:22:18.830Z,5.8
2019-03-08T11:27:24.518Z,9.6
2019-03-08T11:32:29.636Z,5.9
2019-03-08T11:37:35.133Z,6.9
2019-03-08T11:42:40.917Z,5.4
2019-03-08T11:47:46.018Z,6.8
2019-03-08T11:52:51.081Z,6.2
2019-03-08T11:57:56.484Z,6.8
2019-03-08T12:03:02.625Z,4.4
2019-03-08T12:08:07.767Z,7.9
2019-03-08T12:13:13.733Z,10.1
2019-03-08T12:18:20.455Z,6
2019-03-08T12:23:26.359Z,8.8
2019-03-08T12:28:31.439Z,4.6
2019-03-08T12:33:36.774Z,6
2019-03-08T12:38:41.795Z,4.9
2019-03-08T12:43:47.672Z,4.2
2019-03-08T12:48:53.540Z,6.5
2019-03-08T12:54:00.017Z,6.5
2019-03-08T12:59:05.086Z,3.6
2019-03-08T13:04:10.743Z,4.6
2019-03-08T13:09:16.117Z,6.6
2019-03-08T13:14:22.182Z,6
2019-03-08T13:19:27.475Z,8.7
2019-03-08T13:24:33.148Z,21.7
2019-03-08T13:29:39.209Z,17.8
2019-03-08T13:34:44.997Z,13
2019-03-08T13:39:50.895Z,9
2019-03-08T13:44:56.874Z,18.2
2019-03-08T13:50:02.440Z,16.1
2019-03-08T13:55:09.770Z,10.7
2019-03-08T14:00:15.864Z,12.5
2019-03-08T14:05:21.323Z,12.6
2019-03-08T14:10:26.782Z,10.6
2019-03-08T14:15:32.446Z,9.2
2019-03-08T14:20:37.832Z,9.1
2019-03-08T14:25:43.779Z,10.2
2019-03-08T14:30:57.475Z,6.9
2019-03-08T14:35:54.069Z,7.5
2019-03-08T14:40:59.585Z,8.6
2019-03-08T14:46:05.826Z,8.8
2019-03-08T14:51:12.949Z,9
2019-03-08T14:56:18.527Z,6.9
2019-03-08T15:01:24.311Z,6.8
2019-03-08T15:06:30.438Z,8
2019-03-08T15:11:35.819Z,6.6
2019-03-08T15:16:41.166Z,6.9
2019-03-08T15:21:48.657Z,4.8
2019-03-08T15:26:54.582Z,6.5
2019-03-08T15:31:59.422Z,6.3
2019-03-08T15:37:04.501Z,6.5
2019-03-08T15:42:09.531Z,4.2
2019-03-08T15:47:23.144Z,9.1
2019-03-08T15:52:18.768Z,5.3
2019-03-08T15:57:24.105Z,3.8
2019-03-08T16:02:29.093Z,5.5
2019-03-08T16:07:34.218Z,5.1
2019-03-08T16:12:39.178Z,5.9
2019-03-08T16:17:45.163Z,6.1
2019-03-08T16:22:50.441Z,5.9
2019-03-08T16:27:56.044Z,7.1
2019-03-08T16:33:01.905Z,5.7
2019-03-08T16:38:08.069Z,6
2019-03-08T16:43:13.437Z,6.1
2019-03-08T16:48:19.462Z,5.2
2019-03-08T16:53:24.822Z,6.4
2019-03-08T16:58:31.349Z,6.8
2019-03-08T17:03:37.711Z,6.4
2019-03-08T17:08:44.017Z,6.7
2019-03-08T17:13:49.836Z,4.7
2019-03-08T17:18:55.309Z,5
2019-03-08T17:24:00.653Z,5.1
2019-03-08T17:29:04.362Z,5.8
2019-03-08T17:34:10.113Z,6.1
2019-03-08T17:39:16.184Z,4.5
2019-03-08T17:44:21.521Z,6.1
2019-03-08T17:49:27.740Z,5.6
2019-03-08T17:54:31.769Z,5.2
2019-03-08T17:59:37.357Z,5.1
2019-03-08T18:04:43.227Z,4.9
2019-03-08T18:09:49.189Z,5.1
2019-03-08T18:14:55.189Z,5.6
2019-03-08T18:20:01.074Z,4.9
2019-03-08T18:25:06.425Z,4
2019-03-08T18:30:14.843Z,3.9
2019-03-08T18:35:20.596Z,4.6
2019-03-08T18:40:27.824Z,3.8
2019-03-08T18:45:34.002Z,5.5
2019-03-08T18:50:39.336Z,5.4
2019-03-08T18:55:44.690Z,3.8
2019-03-08T19:00:50.429Z,4.6
2019-03-08T19:05:54.167Z,4.5
2019-03-08T19:11:00.131Z,4.5
2019-03-08T19:16:05.723Z,4.6
2019-03-08T19:21:10.278Z,3.8
2019-03-08T19:26:15.947Z,4.3
2019-03-08T19:31:22.527Z,4
2019-03-08T19:36:29.909Z,3.8
2019-03-08T19:41:35.960Z,4.9
2019-03-08T19:46:41.037Z,4.1
2019-03-08T19:51:46.540Z,5.7
2019-03-08T19:56:51.608Z,3.9
2019-03-08T20:01:56.787Z,4.8
2019-03-08T20:07:02.809Z,4
2019-03-08T20:12:07.944Z,3.7
2019-03-08T20:17:13.740Z,4.2
2019-03-08T20:22:19.712Z,4.7
2019-03-08T20:27:25.524Z,4.1
2019-03-08T20:32:31.632Z,5.3
2019-03-08T20:37:37.376Z,4.3
2019-03-08T20:42:42.548Z,6.4
2019-03-08T20:47:48.296Z,5.4
2019-03-08T20:52:53.496Z,5.1
2019-03-08T20:57:58.596Z,4.2
2019-03-08T21:03:03.791Z,4.4
2019-03-08T21:08:09.648Z,4.1
2019-03-08T21:13:15.063Z,4.7
2019-03-08T21:18:20.112Z,5.5
2019-03-08T21:23:25.646Z,4.7
2019-03-08T21:28:30.733Z,4.5
2019-03-08T21:33:36.699Z,5
2019-03-08T21:38:41.848Z,5.1
2019-03-08T21:43:47.479Z,4
2019-03-08T21:48:53.254Z,4
2019-03-08T21:53:58.831Z,5.1
2019-03-08T21:59:03.985Z,3.4
2019-03-08T22:04:10.336Z,4.6
2019-03-08T22:09:16.237Z,5
2019-03-08T22:14:22.697Z,4.3
2019-03-08T22:19:27.906Z,4.1
2019-03-08T22:24:35.144Z,4.1
2019-03-08T22:29:41.116Z,4.5
2019-03-08T22:34:47.351Z,4.2
2019-03-08T22:39:52.414Z,3.9
2019-03-08T22:44:59.323Z,3.8
2019-03-08T22:50:04.436Z,4.6
2019-03-08T22:55:10.184Z,3.9
2019-03-08T23:00:15.909Z,4.4
2019-03-08T23:05:21.109Z,4.1
2019-03-08T23:10:27.424Z,4.4
2019-03-08T23:15:33.212Z,4.5
2019-03-08T23:20:38.855Z,5.9
2019-03-08T23:25:44.680Z,4.2
2019-03-08T23:30:49.657Z,4.5
2019-03-08T23:35:54.816Z,3.6
2019-03-08T23:40:59.775Z,3.7
2019-03-08T23:46:04.809Z,3.9
2019-03-08T23:51:09.924Z,4.2
2019-03-08T23:56:15.096Z,4.2
